sensor_id;sensor_type;location;lat;lon;timestamp;P1;durP1;ratioP1;P2;durP2;ratioP2
11777;SDS011;5946;51.770;8.548;2023-12-04T00:01:34;33.43;;;19.33;;
11777;SDS011;5946;51.770;8.548;2023-12-04T00:04:00;35.13;;;18.83;;
11777;SDS011;5946;51.770;8.548;2023-12-04T00:06:26;36.20;;;20.07;;
11777;SDS011;5946;51.770;8.548;2023-12-04T00:08:52;32.00;;;18.97;;
11777;SDS011;5946;51.770;8.548;2023-12-04T00:11:18;34.70;;;19.30;;
11777;SDS011;5946;51.770;8.548;2023-12-04T00:13:44;34.83;;;19.07;;
11777;SDS011;5946;51.770;8.548;2023-12-04T00:16:10;32.50;;;18.80;;
11777;SDS011;5946;51.770;8.548;2023-12-04T00:18:36;34.50;;;18.37;;
11777;SDS011;5946;51.770;8.548;2023-12-04T00:21:02;34.70;;;19.07;;
11777;SDS011;5946;51.770;8.548;2023-12-04T00:23:28;34.00;;;18.90;;
11777;SDS011;5946;51.770;8.548;2023-12-04T00:25:54;35.57;;;18.23;;
11777;SDS011;5946;51.770;8.548;2023-12-04T00:28:20;33.83;;;18.50;;
11777;SDS011;5946;51.770;8.548;2023-12-04T00:30:46;33.30;;;18.63;;
11777;SDS011;5946;51.770;8.548;2023-12-04T00:33:13;35.43;;;18.70;;
11777;SDS011;5946;51.770;8.548;2023-12-04T00:35:39;32.90;;;18.30;;
11777;SDS011;5946;51.770;8.548;2023-12-04T00:38:05;31.50;;;18.27;;
11777;SDS011;5946;51.770;8.548;2023-12-04T00:40:31;33.47;;;18.90;;
11777;SDS011;5946;51.770;8.548;2023-12-04T00:42:57;34.63;;;19.23;;
11777;SDS011;5946;51.770;8.548;2023-12-04T00:45:23;30.23;;;17.47;;
11777;SDS011;5946;51.770;8.548;2023-12-04T00:47:49;29.47;;;17.17;;
11777;SDS011;5946;51.770;8.548;2023-12-04T00:50:15;30.73;;;17.27;;
11777;SDS011;5946;51.770;8.548;2023-12-04T00:52:41;29.77;;;17.57;;
11777;SDS011;5946;51.770;8.548;2023-12-04T00:55:07;34.03;;;19.07;;
11777;SDS011;5946;51.770;8.548;2023-12-04T00:57:33;31.87;;;18.00;;
11777;SDS011;5946;51.770;8.548;2023-12-04T00:59:59;33.27;;;19.43;;
11777;SDS011;5946;51.770;8.548;2023-12-04T01:02:25;34.97;;;19.17;;
11777;SDS011;5946;51.770;8.548;2023-12-04T01:04:51;33.50;;;18.67;;
11777;SDS011;5946;51.770;8.548;2023-12-04T01:07:17;34.37;;;19.43;;
11777;SDS011;5946;51.770;8.548;2023-12-04T01:09:43;31.53;;;18.67;;
11777;SDS011;5946;51.770;8.548;2023-12-04T01:12:09;28.97;;;17.73;;
11777;SDS011;5946;51.770;8.548;2023-12-04T01:14:35;33.13;;;19.53;;
11777;SDS011;5946;51.770;8.548;2023-12-04T01:17:03;31.37;;;19.07;;
11777;SDS011;5946;51.770;8.548;2023-12-04T01:19:29;30.13;;;17.73;;
11777;SDS011;5946;51.770;8.548;2023-12-04T01:21:55;32.17;;;18.73;;
11777;SDS011;5946;51.770;8.548;2023-12-04T01:24:21;36.60;;;19.70;;
11777;SDS011;5946;51.770;8.548;2023-12-04T01:26:47;33.30;;;19.30;;
11777;SDS011;5946;51.770;8.548;2023-12-04T01:29:13;35.07;;;19.70;;
11777;SDS011;5946;51.770;8.548;2023-12-04T01:31:38;31.07;;;19.10;;
11777;SDS011;5946;51.770;8.548;2023-12-04T01:34:04;36.60;;;20.17;;
11777;SDS011;5946;51.770;8.548;2023-12-04T01:36:30;32.03;;;18.97;;
11777;SDS011;5946;51.770;8.548;2023-12-04T01:38:56;33.57;;;20.17;;
11777;SDS011;5946;51.770;8.548;2023-12-04T01:41:22;33.87;;;19.80;;
11777;SDS011;5946;51.770;8.548;2023-12-04T01:43:48;31.40;;;18.43;;
11777;SDS011;5946;51.770;8.548;2023-12-04T01:46:15;31.03;;;18.57;;
11777;SDS011;5946;51.770;8.548;2023-12-04T01:48:43;31.87;;;18.73;;
11777;SDS011;5946;51.770;8.548;2023-12-04T01:51:10;31.43;;;18.40;;
11777;SDS011;5946;51.770;8.548;2023-12-04T01:53:37;29.77;;;17.93;;
11777;SDS011;5946;51.770;8.548;2023-12-04T01:56:04;31.70;;;17.83;;
11777;SDS011;5946;51.770;8.548;2023-12-04T01:58:31;31.60;;;18.17;;
11777;SDS011;5946;51.770;8.548;2023-12-04T02:00:57;31.23;;;18.20;;
11777;SDS011;5946;51.770;8.548;2023-12-04T02:03:23;31.33;;;17.93;;
11777;SDS011;5946;51.770;8.548;2023-12-04T02:05:50;27.87;;;17.47;;
11777;SDS011;5946;51.770;8.548;2023-12-04T02:08:18;27.57;;;17.10;;
11777;SDS011;5946;51.770;8.548;2023-12-04T02:10:44;31.20;;;17.60;;
11777;SDS011;5946;51.770;8.548;2023-12-04T02:13:10;25.70;;;16.33;;
11777;SDS011;5946;51.770;8.548;2023-12-04T02:15:36;25.07;;;15.63;;
11777;SDS011;5946;51.770;8.548;2023-12-04T02:18:03;26.63;;;16.33;;
11777;SDS011;5946;51.770;8.548;2023-12-04T02:20:32;28.10;;;16.67;;
11777;SDS011;5946;51.770;8.548;2023-12-04T02:22:59;27.70;;;17.50;;
11777;SDS011;5946;51.770;8.548;2023-12-04T02:25:25;29.03;;;17.03;;
11777;SDS011;5946;51.770;8.548;2023-12-04T02:27:51;29.07;;;17.30;;
11777;SDS011;5946;51.770;8.548;2023-12-04T02:30:19;27.27;;;16.93;;
11777;SDS011;5946;51.770;8.548;2023-12-04T02:32:47;29.77;;;16.80;;
11777;SDS011;5946;51.770;8.548;2023-12-04T02:35:17;28.80;;;17.43;;
11777;SDS011;5946;51.770;8.548;2023-12-04T02:37:43;29.93;;;16.60;;
11777;SDS011;5946;51.770;8.548;2023-12-04T02:40:10;25.87;;;16.47;;
11777;SDS011;5946;51.770;8.548;2023-12-04T02:42:36;25.53;;;15.67;;
11777;SDS011;5946;51.770;8.548;2023-12-04T02:45:02;27.60;;;16.73;;
11777;SDS011;5946;51.770;8.548;2023-12-04T02:47:28;26.87;;;16.40;;
11777;SDS011;5946;51.770;8.548;2023-12-04T02:49:54;26.60;;;16.63;;
11777;SDS011;5946;51.770;8.548;2023-12-04T02:52:20;28.73;;;17.17;;
11777;SDS011;5946;51.770;8.548;2023-12-04T02:54:46;25.23;;;16.13;;
11777;SDS011;5946;51.770;8.548;2023-12-04T02:57:12;26.77;;;15.07;;
11777;SDS011;5946;51.770;8.548;2023-12-04T02:59:38;27.13;;;15.87;;
11777;SDS011;5946;51.770;8.548;2023-12-04T03:02:04;25.37;;;15.93;;
11777;SDS011;5946;51.770;8.548;2023-12-04T03:04:30;23.63;;;15.33;;
11777;SDS011;5946;51.770;8.548;2023-12-04T03:06:57;25.50;;;15.93;;
11777;SDS011;5946;51.770;8.548;2023-12-04T03:09:22;24.53;;;15.47;;
11777;SDS011;5946;51.770;8.548;2023-12-04T03:11:48;25.37;;;15.37;;
11777;SDS011;5946;51.770;8.548;2023-12-04T03:14:14;23.23;;;14.43;;
11777;SDS011;5946;51.770;8.548;2023-12-04T03:16:40;24.40;;;15.47;;
11777;SDS011;5946;51.770;8.548;2023-12-04T03:19:06;24.77;;;15.33;;
11777;SDS011;5946;51.770;8.548;2023-12-04T03:21:32;23.10;;;15.20;;
11777;SDS011;5946;51.770;8.548;2023-12-04T03:23:58;22.83;;;14.63;;
11777;SDS011;5946;51.770;8.548;2023-12-04T03:26:24;21.67;;;13.30;;
11777;SDS011;5946;51.770;8.548;2023-12-04T03:28:50;25.57;;;14.90;;
11777;SDS011;5946;51.770;8.548;2023-12-04T03:31:16;23.07;;;14.00;;
11777;SDS011;5946;51.770;8.548;2023-12-04T03:33:42;23.23;;;14.30;;
11777;SDS011;5946;51.770;8.548;2023-12-04T03:36:08;24.33;;;14.43;;
11777;SDS011;5946;51.770;8.548;2023-12-04T03:38:34;21.23;;;13.97;;
11777;SDS011;5946;51.770;8.548;2023-12-04T03:41:00;24.23;;;14.90;;
11777;SDS011;5946;51.770;8.548;2023-12-04T03:43:26;23.37;;;14.47;;
11777;SDS011;5946;51.770;8.548;2023-12-04T03:45:52;21.50;;;13.73;;
11777;SDS011;5946;51.770;8.548;2023-12-04T03:48:18;22.10;;;13.63;;
11777;SDS011;5946;51.770;8.548;2023-12-04T03:50:43;24.90;;;14.03;;
11777;SDS011;5946;51.770;8.548;2023-12-04T03:53:10;19.47;;;13.47;;
11777;SDS011;5946;51.770;8.548;2023-12-04T03:55:35;23.03;;;13.53;;
11777;SDS011;5946;51.770;8.548;2023-12-04T03:58:03;20.33;;;13.10;;
11777;SDS011;5946;51.770;8.548;2023-12-04T04:00:29;19.40;;;12.53;;
11777;SDS011;5946;51.770;8.548;2023-12-04T04:02:55;21.97;;;13.77;;
11777;SDS011;5946;51.770;8.548;2023-12-04T04:05:21;20.13;;;13.37;;
11777;SDS011;5946;51.770;8.548;2023-12-04T04:07:47;21.63;;;13.97;;
11777;SDS011;5946;51.770;8.548;2023-12-04T04:10:13;20.30;;;13.20;;
11777;SDS011;5946;51.770;8.548;2023-12-04T04:12:39;19.63;;;13.30;;
11777;SDS011;5946;51.770;8.548;2023-12-04T04:15:05;20.10;;;13.20;;
11777;SDS011;5946;51.770;8.548;2023-12-04T04:17:31;18.97;;;12.33;;
11777;SDS011;5946;51.770;8.548;2023-12-04T04:19:58;20.07;;;12.33;;
11777;SDS011;5946;51.770;8.548;2023-12-04T04:22:24;19.00;;;12.43;;
11777;SDS011;5946;51.770;8.548;2023-12-04T04:24:50;19.87;;;12.17;;
11777;SDS011;5946;51.770;8.548;2023-12-04T04:27:16;19.90;;;12.80;;
11777;SDS011;5946;51.770;8.548;2023-12-04T04:29:42;19.27;;;12.67;;
11777;SDS011;5946;51.770;8.548;2023-12-04T04:32:08;18.20;;;12.53;;
11777;SDS011;5946;51.770;8.548;2023-12-04T04:34:34;20.97;;;12.47;;
11777;SDS011;5946;51.770;8.548;2023-12-04T04:37:00;17.93;;;11.80;;
11777;SDS011;5946;51.770;8.548;2023-12-04T04:39:26;19.87;;;12.20;;
11777;SDS011;5946;51.770;8.548;2023-12-04T04:41:52;19.20;;;12.53;;
11777;SDS011;5946;51.770;8.548;2023-12-04T04:44:18;19.33;;;11.60;;
11777;SDS011;5946;51.770;8.548;2023-12-04T04:46:44;16.40;;;10.63;;
11777;SDS011;5946;51.770;8.548;2023-12-04T04:49:10;16.60;;;10.63;;
11777;SDS011;5946;51.770;8.548;2023-12-04T04:51:36;18.33;;;12.00;;
11777;SDS011;5946;51.770;8.548;2023-12-04T04:54:02;18.97;;;11.77;;
11777;SDS011;5946;51.770;8.548;2023-12-04T04:56:28;19.50;;;11.87;;
11777;SDS011;5946;51.770;8.548;2023-12-04T04:58:54;18.77;;;11.70;;
11777;SDS011;5946;51.770;8.548;2023-12-04T05:01:20;19.93;;;12.80;;
11777;SDS011;5946;51.770;8.548;2023-12-04T05:03:46;19.27;;;12.13;;
11777;SDS011;5946;51.770;8.548;2023-12-04T05:06:12;18.63;;;11.90;;
11777;SDS011;5946;51.770;8.548;2023-12-04T05:08:38;17.00;;;11.50;;
11777;SDS011;5946;51.770;8.548;2023-12-04T05:11:04;17.33;;;11.33;;
11777;SDS011;5946;51.770;8.548;2023-12-04T05:13:30;16.63;;;11.30;;
11777;SDS011;5946;51.770;8.548;2023-12-04T05:15:56;17.27;;;11.40;;
11777;SDS011;5946;51.770;8.548;2023-12-04T05:18:22;19.03;;;11.90;;
11777;SDS011;5946;51.770;8.548;2023-12-04T05:20:48;18.20;;;11.40;;
11777;SDS011;5946;51.770;8.548;2023-12-04T05:23:14;17.87;;;11.47;;
11777;SDS011;5946;51.770;8.548;2023-12-04T05:25:40;17.23;;;11.37;;
11777;SDS011;5946;51.770;8.548;2023-12-04T05:28:06;17.33;;;11.50;;
11777;SDS011;5946;51.770;8.548;2023-12-04T05:30:32;16.23;;;11.30;;
11777;SDS011;5946;51.770;8.548;2023-12-04T05:32:58;17.03;;;11.60;;
11777;SDS011;5946;51.770;8.548;2023-12-04T05:35:24;17.00;;;10.70;;
11777;SDS011;5946;51.770;8.548;2023-12-04T05:37:50;18.90;;;11.73;;
11777;SDS011;5946;51.770;8.548;2023-12-04T05:40:16;16.80;;;11.00;;
11777;SDS011;5946;51.770;8.548;2023-12-04T05:42:42;19.03;;;11.63;;
11777;SDS011;5946;51.770;8.548;2023-12-04T05:45:08;17.97;;;11.97;;
11777;SDS011;5946;51.770;8.548;2023-12-04T05:47:34;18.40;;;11.77;;
11777;SDS011;5946;51.770;8.548;2023-12-04T05:50:00;19.30;;;11.83;;
11777;SDS011;5946;51.770;8.548;2023-12-04T05:52:26;19.70;;;12.80;;
11777;SDS011;5946;51.770;8.548;2023-12-04T05:54:52;17.97;;;11.77;;
11777;SDS011;5946;51.770;8.548;2023-12-04T05:57:18;15.87;;;10.83;;
11777;SDS011;5946;51.770;8.548;2023-12-04T05:59:44;19.10;;;12.57;;
11777;SDS011;5946;51.770;8.548;2023-12-04T06:02:10;18.40;;;12.10;;
11777;SDS011;5946;51.770;8.548;2023-12-04T06:04:44;17.10;;;11.50;;
11777;SDS011;5946;51.770;8.548;2023-12-04T06:07:10;18.40;;;12.23;;
11777;SDS011;5946;51.770;8.548;2023-12-04T06:09:36;19.50;;;12.73;;
11777;SDS011;5946;51.770;8.548;2023-12-04T06:12:02;17.37;;;11.23;;
11777;SDS011;5946;51.770;8.548;2023-12-04T06:14:33;19.43;;;12.27;;
11777;SDS011;5946;51.770;8.548;2023-12-04T06:16:59;18.27;;;12.50;;
11777;SDS011;5946;51.770;8.548;2023-12-04T06:19:25;21.17;;;13.50;;
11777;SDS011;5946;51.770;8.548;2023-12-04T06:21:51;19.47;;;12.60;;
11777;SDS011;5946;51.770;8.548;2023-12-04T06:24:17;18.47;;;11.97;;
11777;SDS011;5946;51.770;8.548;2023-12-04T06:26:44;20.37;;;12.80;;
11777;SDS011;5946;51.770;8.548;2023-12-04T06:29:13;18.53;;;12.27;;
11777;SDS011;5946;51.770;8.548;2023-12-04T06:31:39;18.13;;;12.23;;
11777;SDS011;5946;51.770;8.548;2023-12-04T06:34:05;18.57;;;12.10;;
11777;SDS011;5946;51.770;8.548;2023-12-04T06:36:31;18.93;;;12.63;;
11777;SDS011;5946;51.770;8.548;2023-12-04T06:39:00;19.37;;;12.00;;
11777;SDS011;5946;51.770;8.548;2023-12-04T06:41:29;17.17;;;11.40;;
11777;SDS011;5946;51.770;8.548;2023-12-04T06:43:55;16.67;;;11.80;;
11777;SDS011;5946;51.770;8.548;2023-12-04T06:46:21;17.97;;;11.47;;
11777;SDS011;5946;51.770;8.548;2023-12-04T06:48:49;18.50;;;11.53;;
11777;SDS011;5946;51.770;8.548;2023-12-04T06:51:18;16.53;;;10.73;;
11777;SDS011;5946;51.770;8.548;2023-12-04T06:53:44;18.67;;;11.97;;
11777;SDS011;5946;51.770;8.548;2023-12-04T06:56:10;16.30;;;10.97;;
11777;SDS011;5946;51.770;8.548;2023-12-04T06:58:36;16.73;;;11.37;;
11777;SDS011;5946;51.770;8.548;2023-12-04T07:01:02;16.13;;;10.87;;
11777;SDS011;5946;51.770;8.548;2023-12-04T07:03:28;16.33;;;10.83;;
11777;SDS011;5946;51.770;8.548;2023-12-04T07:05:54;16.37;;;10.80;;
11777;SDS011;5946;51.770;8.548;2023-12-04T07:08:20;14.97;;;10.10;;
11777;SDS011;5946;51.770;8.548;2023-12-04T07:10:46;16.27;;;10.80;;
11777;SDS011;5946;51.770;8.548;2023-12-04T07:13:12;16.07;;;10.80;;
11777;SDS011;5946;51.770;8.548;2023-12-04T07:15:38;14.53;;;10.57;;
11777;SDS011;5946;51.770;8.548;2023-12-04T07:18:04;16.57;;;10.87;;
11777;SDS011;5946;51.770;8.548;2023-12-04T07:20:30;16.93;;;10.83;;
11777;SDS011;5946;51.770;8.548;2023-12-04T07:22:56;15.87;;;9.90;;
11777;SDS011;5946;51.770;8.548;2023-12-04T07:25:23;14.60;;;9.27;;
11777;SDS011;5946;51.770;8.548;2023-12-04T07:27:49;16.10;;;10.43;;
11777;SDS011;5946;51.770;8.548;2023-12-04T07:30:15;17.93;;;10.63;;
11777;SDS011;5946;51.770;8.548;2023-12-04T07:32:41;17.00;;;10.30;;
11777;SDS011;5946;51.770;8.548;2023-12-04T07:35:07;14.93;;;10.27;;
11777;SDS011;5946;51.770;8.548;2023-12-04T07:37:33;17.23;;;11.30;;
11777;SDS011;5946;51.770;8.548;2023-12-04T07:39:59;17.50;;;11.83;;
11777;SDS011;5946;51.770;8.548;2023-12-04T07:42:25;18.77;;;11.57;;
11777;SDS011;5946;51.770;8.548;2023-12-04T07:44:51;16.93;;;10.23;;
11777;SDS011;5946;51.770;8.548;2023-12-04T07:47:17;17.17;;;11.03;;
11777;SDS011;5946;51.770;8.548;2023-12-04T07:49:44;14.43;;;9.97;;
11777;SDS011;5946;51.770;8.548;2023-12-04T07:52:10;14.13;;;10.03;;
11777;SDS011;5946;51.770;8.548;2023-12-04T07:54:36;15.13;;;10.07;;
11777;SDS011;5946;51.770;8.548;2023-12-04T07:57:02;14.87;;;10.17;;
11777;SDS011;5946;51.770;8.548;2023-12-04T07:59:28;14.73;;;9.97;;
11777;SDS011;5946;51.770;8.548;2023-12-04T08:01:54;13.53;;;9.30;;
11777;SDS011;5946;51.770;8.548;2023-12-04T08:04:20;15.70;;;10.27;;
11777;SDS011;5946;51.770;8.548;2023-12-04T08:06:46;14.97;;;10.03;;
11777;SDS011;5946;51.770;8.548;2023-12-04T08:09:12;14.50;;;10.20;;
11777;SDS011;5946;51.770;8.548;2023-12-04T08:11:38;14.60;;;10.23;;
11777;SDS011;5946;51.770;8.548;2023-12-04T08:14:05;14.67;;;10.10;;
11777;SDS011;5946;51.770;8.548;2023-12-04T08:16:31;15.07;;;9.37;;
11777;SDS011;5946;51.770;8.548;2023-12-04T08:18:57;12.80;;;8.73;;
11777;SDS011;5946;51.770;8.548;2023-12-04T08:21:23;13.30;;;9.33;;
11777;SDS011;5946;51.770;8.548;2023-12-04T08:23:49;13.10;;;8.43;;
11777;SDS011;5946;51.770;8.548;2023-12-04T08:26:21;10.90;;;8.17;;
11777;SDS011;5946;51.770;8.548;2023-12-04T08:28:47;13.57;;;8.87;;
11777;SDS011;5946;51.770;8.548;2023-12-04T08:31:13;12.00;;;8.03;;
11777;SDS011;5946;51.770;8.548;2023-12-04T08:33:40;14.17;;;8.60;;
11777;SDS011;5946;51.770;8.548;2023-12-04T08:36:06;11.87;;;7.93;;
11777;SDS011;5946;51.770;8.548;2023-12-04T08:38:32;12.40;;;7.87;;
11777;SDS011;5946;51.770;8.548;2023-12-04T08:40:58;11.47;;;8.03;;
11777;SDS011;5946;51.770;8.548;2023-12-04T08:43:24;12.73;;;8.50;;
11777;SDS011;5946;51.770;8.548;2023-12-04T08:45:50;14.30;;;9.43;;
11777;SDS011;5946;51.770;8.548;2023-12-04T08:48:16;13.20;;;9.27;;
11777;SDS011;5946;51.770;8.548;2023-12-04T08:50:42;19.07;;;9.43;;
11777;SDS011;5946;51.770;8.548;2023-12-04T08:53:08;16.00;;;10.03;;
11777;SDS011;5946;51.770;8.548;2023-12-04T08:55:34;15.40;;;10.47;;
11777;SDS011;5946;51.770;8.548;2023-12-04T08:58:00;14.70;;;9.63;;
11777;SDS011;5946;51.770;8.548;2023-12-04T09:00:26;19.27;;;10.60;;
11777;SDS011;5946;51.770;8.548;2023-12-04T09:02:52;14.93;;;10.30;;
11777;SDS011;5946;51.770;8.548;2023-12-04T09:05:19;18.13;;;10.17;;
11777;SDS011;5946;51.770;8.548;2023-12-04T09:07:45;14.90;;;10.27;;
11777;SDS011;5946;51.770;8.548;2023-12-04T09:10:11;15.33;;;10.00;;
11777;SDS011;5946;51.770;8.548;2023-12-04T09:12:37;14.47;;;10.33;;
11777;SDS011;5946;51.770;8.548;2023-12-04T09:15:04;16.53;;;10.00;;
11777;SDS011;5946;51.770;8.548;2023-12-04T09:17:30;15.93;;;9.53;;
11777;SDS011;5946;51.770;8.548;2023-12-04T09:19:56;14.80;;;10.13;;
11777;SDS011;5946;51.770;8.548;2023-12-04T09:22:22;14.37;;;10.27;;
11777;SDS011;5946;51.770;8.548;2023-12-04T09:24:48;13.47;;;9.67;;
11777;SDS011;5946;51.770;8.548;2023-12-04T09:27:15;15.67;;;10.33;;
11777;SDS011;5946;51.770;8.548;2023-12-04T09:29:42;14.30;;;9.90;;
11777;SDS011;5946;51.770;8.548;2023-12-04T09:32:08;13.73;;;9.63;;
11777;SDS011;5946;51.770;8.548;2023-12-04T09:34:35;18.97;;;11.23;;
11777;SDS011;5946;51.770;8.548;2023-12-04T09:37:01;17.83;;;10.63;;
11777;SDS011;5946;51.770;8.548;2023-12-04T09:39:27;15.40;;;10.40;;
11777;SDS011;5946;51.770;8.548;2023-12-04T09:41:53;15.57;;;9.90;;
11777;SDS011;5946;51.770;8.548;2023-12-04T09:44:21;14.03;;;9.67;;
11777;SDS011;5946;51.770;8.548;2023-12-04T09:46:47;16.40;;;10.03;;
11777;SDS011;5946;51.770;8.548;2023-12-04T09:49:14;13.50;;;9.43;;
11777;SDS011;5946;51.770;8.548;2023-12-04T09:51:41;17.47;;;9.90;;
11777;SDS011;5946;51.770;8.548;2023-12-04T09:54:07;15.20;;;10.37;;
11777;SDS011;5946;51.770;8.548;2023-12-04T09:56:33;13.50;;;9.93;;
11777;SDS011;5946;51.770;8.548;2023-12-04T09:59:00;14.20;;;10.30;;
11777;SDS011;5946;51.770;8.548;2023-12-04T10:01:27;15.83;;;9.57;;
11777;SDS011;5946;51.770;8.548;2023-12-04T10:03:54;15.17;;;10.13;;
11777;SDS011;5946;51.770;8.548;2023-12-04T10:06:22;17.27;;;10.00;;
11777;SDS011;5946;51.770;8.548;2023-12-04T10:08:49;16.67;;;10.20;;
11777;SDS011;5946;51.770;8.548;2023-12-04T10:11:15;15.53;;;10.37;;
11777;SDS011;5946;51.770;8.548;2023-12-04T10:13:41;16.60;;;10.67;;
11777;SDS011;5946;51.770;8.548;2023-12-04T10:16:07;17.40;;;11.00;;
11777;SDS011;5946;51.770;8.548;2023-12-04T10:18:33;15.70;;;10.37;;
11777;SDS011;5946;51.770;8.548;2023-12-04T10:21:00;16.43;;;10.73;;
11777;SDS011;5946;51.770;8.548;2023-12-04T10:23:39;16.13;;;10.90;;
11777;SDS011;5946;51.770;8.548;2023-12-04T10:26:05;18.17;;;11.07;;
11777;SDS011;5946;51.770;8.548;2023-12-04T10:28:32;16.73;;;10.77;;
11777;SDS011;5946;51.770;8.548;2023-12-04T10:30:58;16.00;;;10.63;;
11777;SDS011;5946;51.770;8.548;2023-12-04T10:33:24;15.83;;;10.33;;
11777;SDS011;5946;51.770;8.548;2023-12-04T10:35:54;15.53;;;10.30;;
11777;SDS011;5946;51.770;8.548;2023-12-04T10:38:22;15.33;;;10.70;;
11777;SDS011;5946;51.770;8.548;2023-12-04T10:40:48;15.13;;;9.80;;
11777;SDS011;5946;51.770;8.548;2023-12-04T10:43:18;15.37;;;10.67;;
11777;SDS011;5946;51.770;8.548;2023-12-04T10:45:48;18.37;;;11.20;;
11777;SDS011;5946;51.770;8.548;2023-12-04T10:48:15;15.20;;;10.00;;
11777;SDS011;5946;51.770;8.548;2023-12-04T10:50:42;17.57;;;11.83;;
11777;SDS011;5946;51.770;8.548;2023-12-04T10:53:09;16.30;;;10.97;;
11777;SDS011;5946;51.770;8.548;2023-12-04T10:55:36;18.97;;;11.80;;
11777;SDS011;5946;51.770;8.548;2023-12-04T10:58:04;19.17;;;12.20;;
11777;SDS011;5946;51.770;8.548;2023-12-04T11:00:32;16.20;;;11.50;;
11777;SDS011;5946;51.770;8.548;2023-12-04T11:03:00;16.20;;;10.67;;
11777;SDS011;5946;51.770;8.548;2023-12-04T11:05:28;17.17;;;11.40;;
11777;SDS011;5946;51.770;8.548;2023-12-04T11:07:56;15.00;;;10.57;;
11777;SDS011;5946;51.770;8.548;2023-12-04T11:10:26;17.10;;;10.43;;
11777;SDS011;5946;51.770;8.548;2023-12-04T11:12:57;17.53;;;11.50;;
11777;SDS011;5946;51.770;8.548;2023-12-04T11:15:28;17.87;;;11.40;;
11777;SDS011;5946;51.770;8.548;2023-12-04T11:17:58;16.57;;;10.80;;
11777;SDS011;5946;51.770;8.548;2023-12-04T11:20:27;16.23;;;10.80;;
11777;SDS011;5946;51.770;8.548;2023-12-04T11:22:53;18.73;;;11.27;;
11777;SDS011;5946;51.770;8.548;2023-12-04T11:25:19;16.03;;;10.50;;
11777;SDS011;5946;51.770;8.548;2023-12-04T11:27:48;18.53;;;11.70;;
11777;SDS011;5946;51.770;8.548;2023-12-04T11:30:14;16.17;;;11.07;;
11777;SDS011;5946;51.770;8.548;2023-12-04T11:32:48;16.60;;;11.13;;
11777;SDS011;5946;51.770;8.548;2023-12-04T11:35:16;18.70;;;10.93;;
11777;SDS011;5946;51.770;8.548;2023-12-04T11:37:43;16.40;;;11.37;;
11777;SDS011;5946;51.770;8.548;2023-12-04T11:40:12;17.30;;;10.80;;
11777;SDS011;5946;51.770;8.548;2023-12-04T11:42:38;15.57;;;10.17;;
11777;SDS011;5946;51.770;8.548;2023-12-04T11:45:04;15.70;;;11.00;;
11777;SDS011;5946;51.770;8.548;2023-12-04T11:47:31;17.70;;;10.57;;
11777;SDS011;5946;51.770;8.548;2023-12-04T11:50:07;17.70;;;10.97;;
11777;SDS011;5946;51.770;8.548;2023-12-04T11:52:33;16.63;;;10.47;;
11777;SDS011;5946;51.770;8.548;2023-12-04T11:55:05;16.17;;;10.37;;
11777;SDS011;5946;51.770;8.548;2023-12-04T11:57:32;16.43;;;11.07;;
11777;SDS011;5946;51.770;8.548;2023-12-04T12:05:22;15.37;;;10.87;;
11777;SDS011;5946;51.770;8.548;2023-12-04T12:07:48;16.53;;;11.67;;
11777;SDS011;5946;51.770;8.548;2023-12-04T12:10:15;13.87;;;10.30;;
11777;SDS011;5946;51.770;8.548;2023-12-04T12:12:41;14.60;;;10.30;;
11777;SDS011;5946;51.770;8.548;2023-12-04T12:15:11;15.47;;;10.37;;
11777;SDS011;5946;51.770;8.548;2023-12-04T12:17:38;36.03;;;22.30;;
11777;SDS011;5946;51.770;8.548;2023-12-04T12:20:08;17.30;;;11.23;;
11777;SDS011;5946;51.770;8.548;2023-12-04T12:22:34;31.27;;;18.70;;
11777;SDS011;5946;51.770;8.548;2023-12-04T12:25:01;35.83;;;21.33;;
11777;SDS011;5946;51.770;8.548;2023-12-04T12:27:29;19.17;;;12.60;;
11777;SDS011;5946;51.770;8.548;2023-12-04T12:29:55;18.73;;;11.43;;
11777;SDS011;5946;51.770;8.548;2023-12-04T12:32:21;18.83;;;12.50;;
11777;SDS011;5946;51.770;8.548;2023-12-04T12:34:47;24.43;;;14.70;;
11777;SDS011;5946;51.770;8.548;2023-12-04T12:37:13;31.27;;;18.73;;
11777;SDS011;5946;51.770;8.548;2023-12-04T12:39:39;21.33;;;13.63;;
11777;SDS011;5946;51.770;8.548;2023-12-04T12:42:05;19.07;;;11.80;;
11777;SDS011;5946;51.770;8.548;2023-12-04T12:44:39;17.83;;;11.43;;
11777;SDS011;5946;51.770;8.548;2023-12-04T12:47:06;16.83;;;11.10;;
11777;SDS011;5946;51.770;8.548;2023-12-04T12:49:32;60.37;;;34.23;;
11777;SDS011;5946;51.770;8.548;2023-12-04T12:52:00;23.43;;;15.37;;
11777;SDS011;5946;51.770;8.548;2023-12-04T12:54:26;25.30;;;17.17;;
11777;SDS011;5946;51.770;8.548;2023-12-04T12:56:57;28.47;;;20.00;;
11777;SDS011;5946;51.770;8.548;2023-12-04T12:59:23;20.80;;;14.50;;
11777;SDS011;5946;51.770;8.548;2023-12-04T13:01:49;32.50;;;20.10;;
11777;SDS011;5946;51.770;8.548;2023-12-04T13:04:15;20.90;;;13.27;;
11777;SDS011;5946;51.770;8.548;2023-12-04T13:06:41;21.47;;;14.10;;
11777;SDS011;5946;51.770;8.548;2023-12-04T13:09:07;22.20;;;13.03;;
11777;SDS011;5946;51.770;8.548;2023-12-04T13:11:33;20.40;;;13.47;;
11777;SDS011;5946;51.770;8.548;2023-12-04T13:13:59;19.23;;;12.73;;
11777;SDS011;5946;51.770;8.548;2023-12-04T13:16:25;32.23;;;19.27;;
11777;SDS011;5946;51.770;8.548;2023-12-04T13:18:51;47.60;;;27.67;;
11777;SDS011;5946;51.770;8.548;2023-12-04T13:21:17;26.47;;;16.20;;
11777;SDS011;5946;51.770;8.548;2023-12-04T13:23:43;20.07;;;13.37;;
11777;SDS011;5946;51.770;8.548;2023-12-04T13:26:08;31.20;;;17.63;;
11777;SDS011;5946;51.770;8.548;2023-12-04T13:28:36;65.20;;;35.83;;
11777;SDS011;5946;51.770;8.548;2023-12-04T13:31:03;41.47;;;24.03;;
11777;SDS011;5946;51.770;8.548;2023-12-04T13:33:29;40.73;;;23.40;;
11777;SDS011;5946;51.770;8.548;2023-12-04T13:35:55;70.00;;;38.47;;
11777;SDS011;5946;51.770;8.548;2023-12-04T13:38:21;42.80;;;25.23;;
11777;SDS011;5946;51.770;8.548;2023-12-04T13:40:47;36.47;;;22.03;;
11777;SDS011;5946;51.770;8.548;2023-12-04T13:43:25;54.87;;;34.07;;
11777;SDS011;5946;51.770;8.548;2023-12-04T13:46:10;27.80;;;17.97;;
11777;SDS011;5946;51.770;8.548;2023-12-04T13:48:36;22.27;;;14.03;;
11777;SDS011;5946;51.770;8.548;2023-12-04T13:51:05;28.57;;;17.43;;
11777;SDS011;5946;51.770;8.548;2023-12-04T13:53:31;32.70;;;19.47;;
11777;SDS011;5946;51.770;8.548;2023-12-04T13:55:58;29.30;;;17.83;;
11777;SDS011;5946;51.770;8.548;2023-12-04T13:58:27;26.17;;;16.17;;
11777;SDS011;5946;51.770;8.548;2023-12-04T14:01:09;20.90;;;13.37;;
11777;SDS011;5946;51.770;8.548;2023-12-04T14:03:39;26.20;;;15.80;;
11777;SDS011;5946;51.770;8.548;2023-12-04T14:06:06;28.63;;;16.83;;
11777;SDS011;5946;51.770;8.548;2023-12-04T14:08:32;25.80;;;15.20;;
11777;SDS011;5946;51.770;8.548;2023-12-04T14:10:57;36.00;;;19.53;;
11777;SDS011;5946;51.770;8.548;2023-12-04T14:13:23;34.90;;;19.87;;
11777;SDS011;5946;51.770;8.548;2023-12-04T14:15:49;20.70;;;13.40;;
11777;SDS011;5946;51.770;8.548;2023-12-04T14:18:15;16.50;;;11.23;;
11777;SDS011;5946;51.770;8.548;2023-12-04T14:20:41;19.03;;;11.97;;
11777;SDS011;5946;51.770;8.548;2023-12-04T14:23:07;14.23;;;10.07;;
11777;SDS011;5946;51.770;8.548;2023-12-04T14:25:33;20.67;;;12.47;;
11777;SDS011;5946;51.770;8.548;2023-12-04T14:27:59;18.47;;;11.43;;
11777;SDS011;5946;51.770;8.548;2023-12-04T14:30:26;23.73;;;12.93;;
11777;SDS011;5946;51.770;8.548;2023-12-04T14:32:52;17.73;;;10.90;;
11777;SDS011;5946;51.770;8.548;2023-12-04T14:35:18;17.10;;;11.97;;
11777;SDS011;5946;51.770;8.548;2023-12-04T14:37:44;15.33;;;10.17;;